Time;durP1;ratioP1;P1;durP2;ratioP2;P2;SDS_P1;SDS_P2;PMS_P1;PMS_P2;Temp;Humidity;BMP_temperature;BMP_pressure;BME280_temperature;BME280_humidity;BME280_pressure;Samples;Min_cycle;Max_cycle;Signal;HPM_P1;HPM_P2
2022/07/02 00:00:05;;;;;;;;;;;15.40;99.90;;;;;;8390730;28;19947;-70
2022/07/02 00:04:09;;;;;;;;;;;15.40;99.90;;;;;;8376642;28;19928;-71
2022/07/02 00:08:11;;;;;;;;;;;15.30;99.90;;;;;;8386663;28;20311;-71
2022/07/02 00:12:13;;;;;;;;;;;15.20;99.90;;;;;;8382300;28;19926;-71
2022/07/02 00:16:15;;;;;;;;;;;15.20;99.90;;;;;;8370215;28;20026;-70
2022/07/02 00:20:16;;;;;;;;;;;15.20;99.90;;;;;;8362534;28;19930;-71
2022/07/02 00:24:18;;;;;;;;;;;15.10;99.90;;;;;;8379657;28;19944;-71
2022/07/02 00:28:22;;;;;;;;;;;15.10;99.90;;;;;;8374437;28;20383;-71
2022/07/02 00:32:28;;;;;;;;;;;15.10;99.90;;;;;;8364754;28;19932;-71
2022/07/02 00:36:31;;;;;;;;;;;15.00;99.90;;;;;;8377476;28;19936;-71
2022/07/02 00:40:33;;;;;;;;;;;15.00;99.90;;;;;;8378657;28;19931;-70
2022/07/02 00:44:35;;;;;;;;;;;14.90;99.90;;;;;;8377304;28;19934;-71
2022/07/02 00:48:37;;;;;;;;;;;14.90;99.90;;;;;;8384583;28;19929;-71
2022/07/02 00:52:39;;;;;;;;;;;14.90;99.90;;;;;;8381340;28;19980;-71
2022/07/02 00:56:40;;;;;;;;;;;14.80;99.90;;;;;;8380987;28;20355;-71
2022/07/02 01:00:42;;;;;;;;;;;14.80;99.90;;;;;;8358773;28;19947;-71
2022/07/02 01:04:45;;;;;;;;;;;14.70;99.90;;;;;;8389136;28;19924;-71
2022/07/02 01:13:08;;;;;;;;;;;14.60;99.90;;;;;;8368005;28;19935;-71
2022/07/02 01:17:10;;;;;;;;;;;14.60;99.90;;;;;;8355080;28;19932;-71
2022/07/02 01:21:12;;;;;;;;;;;14.50;99.90;;;;;;8377440;28;19933;-71
2022/07/02 01:25:13;;;;;;;;;;;14.50;99.90;;;;;;8374559;28;19925;-71
2022/07/02 01:29:15;;;;;;;;;;;14.50;99.90;;;;;;8372998;28;19924;-71
2022/07/02 01:33:17;;;;;;;;;;;14.40;99.90;;;;;;8391863;28;19925;-71
2022/07/02 01:37:20;;;;;;;;;;;14.40;99.90;;;;;;8365959;28;19931;-71
2022/07/02 01:41:39;;;;;;;;;;;14.40;99.90;;;;;;8373665;28;19925;-71
2022/07/02 01:45:41;;;;;;;;;;;14.30;99.90;;;;;;8381349;28;19937;-71
2022/07/02 01:49:43;;;;;;;;;;;14.30;99.90;;;;;;8379256;28;19931;-70
2022/07/02 01:53:44;;;;;;;;;;;14.30;99.90;;;;;;8385834;28;20375;-71
2022/07/02 01:57:46;;;;;;;;;;;14.20;99.90;;;;;;8362269;28;19925;-71
2022/07/02 02:01:48;;;;;;;;;;;14.10;99.90;;;;;;8369086;28;21047;-71
2022/07/02 02:05:54;;;;;;;;;;;14.10;99.90;;;;;;8384194;28;19928;-71
2022/07/02 02:09:55;;;;;;;;;;;14.10;99.90;;;;;;8385652;28;20318;-71
2022/07/02 02:13:58;;;;;;;;;;;14.10;99.90;;;;;;8377051;28;19936;-71
2022/07/02 02:17:59;;;;;;;;;;;14.00;99.90;;;;;;8375491;28;19924;-71
2022/07/02 02:22:01;;;;;;;;;;;14.00;99.90;;;;;;8379656;28;19929;-71
2022/07/02 02:26:03;;;;;;;;;;;13.90;99.90;;;;;;8369166;28;19924;-71
2022/07/02 02:30:05;;;;;;;;;;;13.90;99.90;;;;;;8375840;28;20387;-71
2022/07/02 02:34:06;;;;;;;;;;;13.90;99.90;;;;;;8379920;28;19936;-71
2022/07/02 02:38:08;;;;;;;;;;;13.90;99.90;;;;;;8370118;28;19924;-71
2022/07/02 02:42:10;;;;;;;;;;;13.90;99.90;;;;;;8369519;28;19944;-71
2022/07/02 02:46:11;;;;;;;;;;;13.80;99.90;;;;;;8355172;28;19935;-71
2022/07/02 02:50:13;;;;;;;;;;;13.80;99.90;;;;;;8380790;28;19925;-71
2022/07/02 02:54:14;;;;;;;;;;;13.80;99.90;;;;;;8365415;28;19931;-71
2022/07/02 02:58:16;;;;;;;;;;;13.70;99.90;;;;;;8373491;28;20271;-71
2022/07/02 03:02:18;;;;;;;;;;;13.70;99.90;;;;;;8371594;28;20363;-71
2022/07/02 03:06:20;;;;;;;;;;;13.70;99.90;;;;;;8378799;28;19967;-71
2022/07/02 03:10:21;;;;;;;;;;;13.60;99.90;;;;;;8374978;28;20068;-71
2022/07/02 03:14:23;;;;;;;;;;;13.60;99.90;;;;;;8421677;28;19924;-71
2022/07/02 03:18:24;;;;;;;;;;;13.60;99.90;;;;;;8387494;28;19924;-71
2022/07/02 03:22:28;;;;;;;;;;;13.60;99.90;;;;;;8390218;28;19925;-71
2022/07/02 03:26:29;;;;;;;;;;;13.60;99.90;;;;;;8378075;28;19932;-70
2022/07/02 03:30:31;;;;;;;;;;;13.60;99.90;;;;;;8363826;28;19933;-71
2022/07/02 03:34:33;;;;;;;;;;;13.60;99.90;;;;;;8375181;28;20343;-71
2022/07/02 03:38:34;;;;;;;;;;;13.50;99.90;;;;;;8378556;28;19924;-70
2022/07/02 03:42:36;;;;;;;;;;;13.50;99.90;;;;;;8388679;28;19925;-70
2022/07/02 03:46:38;;;;;;;;;;;13.50;99.90;;;;;;8365638;28;19929;-71
2022/07/02 03:50:42;;;;;;;;;;;13.40;99.90;;;;;;8391080;28;19924;-71
2022/07/02 03:54:44;;;;;;;;;;;13.40;99.90;;;;;;8360140;28;20305;-72
2022/07/02 03:58:45;;;;;;;;;;;13.30;99.90;;;;;;8375240;28;19925;-70
2022/07/02 04:02:47;;;;;;;;;;;13.40;99.90;;;;;;8375698;28;19937;-70
2022/07/02 04:06:49;;;;;;;;;;;13.40;99.90;;;;;;8400158;28;20323;-70
2022/07/02 04:10:51;;;;;;;;;;;13.40;99.90;;;;;;8387030;28;19943;-70
2022/07/02 04:14:52;;;;;;;;;;;13.50;99.90;;;;;;8383241;28;19947;-71
2022/07/02 04:18:54;;;;;;;;;;;13.50;99.90;;;;;;8379989;28;19932;-71
2022/07/02 04:23:13;;;;;;;;;;;13.60;99.90;;;;;;8385279;28;19975;-71
2022/07/02 04:27:16;;;;;;;;;;;13.60;99.90;;;;;;8381634;28;20373;-71
2022/07/02 04:31:18;;;;;;;;;;;13.60;99.90;;;;;;8374687;28;20372;-70
2022/07/02 04:35:19;;;;;;;;;;;13.60;99.90;;;;;;8374089;28;19932;-71
2022/07/02 04:39:21;;;;;;;;;;;13.70;99.90;;;;;;8368132;28;19932;-71
2022/07/02 04:43:23;;;;;;;;;;;13.80;99.90;;;;;;8382013;28;19931;-71
2022/07/02 04:47:24;;;;;;;;;;;13.90;99.90;;;;;;8369367;28;19933;-70
2022/07/02 04:51:26;;;;;;;;;;;13.90;99.90;;;;;;8374385;28;19928;-71
2022/07/02 04:55:30;;;;;;;;;;;14.10;99.90;;;;;;8358660;28;20375;-70
2022/07/02 04:59:32;;;;;;;;;;;14.20;99.90;;;;;;8367088;28;19924;-71
2022/07/02 05:03:38;;;;;;;;;;;14.30;99.90;;;;;;8381858;28;19976;-71
2022/07/02 05:07:40;;;;;;;;;;;14.40;99.90;;;;;;8389702;28;20283;-70
2022/07/02 05:11:42;;;;;;;;;;;14.50;99.90;;;;;;8383142;28;20004;-71
2022/07/02 05:15:45;;;;;;;;;;;14.60;99.90;;;;;;8387151;28;20283;-71
2022/07/02 05:19:46;;;;;;;;;;;14.70;99.90;;;;;;8393791;28;19933;-71
2022/07/02 05:23:48;;;;;;;;;;;14.70;99.90;;;;;;8394386;28;19954;-71
2022/07/02 05:37:57;;;;;;;;;;;15.00;99.90;;;;;;8383248;28;19939;-71
2022/07/02 05:41:59;;;;;;;;;;;15.10;99.90;;;;;;8380048;28;19924;-71
2022/07/02 05:46:00;;;;;;;;;;;15.20;99.90;;;;;;8363986;28;19931;-71
2022/07/02 05:50:02;;;;;;;;;;;15.20;99.90;;;;;;8362112;28;19928;-71
2022/07/02 05:54:06;;;;;;;;;;;15.30;99.90;;;;;;8379907;28;20197;-71
2022/07/02 05:58:08;;;;;;;;;;;15.40;99.90;;;;;;8379888;28;19924;-71
2022/07/02 06:02:10;;;;;;;;;;;15.50;99.90;;;;;;8366386;28;19939;-71
2022/07/02 06:10:32;;;;;;;;;;;15.60;99.90;;;;;;8381175;28;19928;-71
2022/07/02 06:14:33;;;;;;;;;;;15.60;99.90;;;;;;8370338;28;19933;-71
2022/07/02 06:18:35;;;;;;;;;;;15.70;99.90;;;;;;8347411;28;19925;-71
2022/07/02 06:22:37;;;;;;;;;;;15.70;99.90;;;;;;8370752;28;19932;-72
2022/07/02 06:26:39;;;;;;;;;;;15.80;99.90;;;;;;8366083;28;19924;-71
2022/07/02 06:30:40;;;;;;;;;;;15.90;99.90;;;;;;8376877;28;20428;-71
2022/07/02 06:34:43;;;;;;;;;;;15.90;99.90;;;;;;8378482;28;20382;-71
2022/07/02 06:38:44;;;;;;;;;;;16.00;99.90;;;;;;8384705;28;19925;-71
2022/07/02 06:42:46;;;;;;;;;;;16.00;99.90;;;;;;8357565;28;19933;-71
2022/07/02 06:46:48;;;;;;;;;;;16.10;99.90;;;;;;8373234;28;19932;-71
2022/07/02 06:50:49;;;;;;;;;;;16.10;99.90;;;;;;8351177;28;19936;-71
2022/07/02 06:54:51;;;;;;;;;;;16.20;99.90;;;;;;8378336;28;20023;-71
2022/07/02 06:58:53;;;;;;;;;;;16.20;99.90;;;;;;8376648;28;19955;-71
2022/07/02 07:02:54;;;;;;;;;;;16.20;99.90;;;;;;8362725;28;19932;-71
2022/07/02 07:06:57;;;;;;;;;;;16.30;99.90;;;;;;8378413;28;19963;-71
2022/07/02 07:10:58;;;;;;;;;;;16.30;99.90;;;;;;8357839;28;19925;-71
2022/07/02 07:15:04;;;;;;;;;;;16.40;99.90;;;;;;8356251;28;19932;-71
2022/07/02 07:19:07;;;;;;;;;;;16.40;99.90;;;;;;8357962;28;19925;-70
2022/07/02 07:23:13;;;;;;;;;;;16.50;99.90;;;;;;8356168;28;19982;-71
2022/07/02 07:27:14;;;;;;;;;;;16.60;99.90;;;;;;8371473;28;19929;-71
2022/07/02 07:31:20;;;;;;;;;;;16.80;99.90;;;;;;8360181;28;20027;-71
2022/07/02 07:35:21;;;;;;;;;;;16.90;99.90;;;;;;8356104;28;19928;-71
2022/07/02 07:39:23;;;;;;;;;;;17.00;99.90;;;;;;8359784;28;20030;-71
2022/07/02 07:43:25;;;;;;;;;;;17.20;99.90;;;;;;8357067;28;19925;-71
2022/07/02 07:47:28;;;;;;;;;;;17.30;99.90;;;;;;8356887;28;19929;-71
2022/07/02 07:51:30;;;;;;;;;;;17.40;99.90;;;;;;8370036;28;19928;-71
2022/07/02 07:55:31;;;;;;;;;;;17.50;99.90;;;;;;8354992;28;20356;-70
2022/07/02 07:59:33;;;;;;;;;;;17.60;99.90;;;;;;8357862;28;19925;-71
2022/07/02 08:03:35;;;;;;;;;;;17.70;99.90;;;;;;8359486;28;19935;-71
2022/07/02 08:07:37;;;;;;;;;;;17.80;99.90;;;;;;8364931;28;20257;-71
2022/07/02 08:11:39;;;;;;;;;;;17.90;99.90;;;;;;8357005;28;20135;-71
2022/07/02 08:15:41;;;;;;;;;;;17.90;99.90;;;;;;8356013;28;19925;-70
2022/07/02 08:19:43;;;;;;;;;;;18.00;99.90;;;;;;8350259;28;20023;-71
2022/07/02 08:23:44;;;;;;;;;;;18.10;99.90;;;;;;8369547;28;19932;-71
2022/07/02 08:27:46;;;;;;;;;;;18.20;99.90;;;;;;8356284;28;19921;-71
2022/07/02 08:31:48;;;;;;;;;;;18.20;99.90;;;;;;8342389;28;19928;-71
2022/07/02 08:35:49;;;;;;;;;;;18.30;99.90;;;;;;8351057;28;20300;-70
2022/07/02 08:39:51;;;;;;;;;;;18.30;99.90;;;;;;8347257;28;20006;-71
2022/07/02 08:43:54;;;;;;;;;;;18.40;99.90;;;;;;8352011;28;20062;-70
2022/07/02 08:47:57;;;;;;;;;;;18.50;99.90;;;;;;8347967;28;19924;-71
2022/07/02 08:56:02;;;;;;;;;;;18.60;99.90;;;;;;8354261;28;19920;-71
2022/07/02 09:00:04;;;;;;;;;;;18.70;99.90;;;;;;8368013;28;19928;-71
2022/07/02 09:04:06;;;;;;;;;;;18.80;99.90;;;;;;8353252;28;20455;-71
2022/07/02 09:08:08;;;;;;;;;;;18.80;99.90;;;;;;8357033;28;19921;-71
2022/07/02 09:12:11;;;;;;;;;;;18.90;99.90;;;;;;8325335;28;19924;-71
2022/07/02 09:16:13;;;;;;;;;;;19.00;99.90;;;;;;8344851;28;19924;-71
2022/07/02 09:20:15;;;;;;;;;;;19.10;99.90;;;;;;8343475;28;20011;-69
2022/07/02 09:39:29;;;;;;;;;;;19.40;99.90;;;;;;8353300;28;19982;-71
2022/07/02 09:43:32;;;;;;;;;;;19.50;99.90;;;;;;8336215;28;19980;-71
2022/07/02 09:47:36;;;;;;;;;;;19.50;99.90;;;;;;8345846;28;19939;-72
2022/07/02 09:51:56;;;;;;;;;;;19.60;99.90;;;;;;8367226;28;19939;-72
2022/07/02 09:55:58;;;;;;;;;;;19.70;99.90;;;;;;8358798;28;19931;-71
2022/07/02 10:00:04;;;;;;;;;;;19.80;99.90;;;;;;8346771;28;19927;-71
2022/07/02 10:04:05;;;;;;;;;;;19.90;99.90;;;;;;8353344;28;19932;-71
2022/07/02 10:08:07;;;;;;;;;;;19.90;99.90;;;;;;8353517;28;19921;-71
2022/07/02 10:12:09;;;;;;;;;;;19.90;99.90;;;;;;8350708;28;19925;-71
2022/07/02 10:16:14;;;;;;;;;;;20.00;99.90;;;;;;8351697;28;19928;-70
2022/07/02 10:20:17;;;;;;;;;;;20.00;99.90;;;;;;8352883;28;19920;-72
2022/07/02 10:24:21;;;;;;;;;;;20.10;99.90;;;;;;8348866;28;20367;-70
2022/07/02 10:28:24;;;;;;;;;;;20.20;99.90;;;;;;8350945;28;19920;-70
2022/07/02 10:32:49;;;;;;;;;;;20.20;99.90;;;;;;8353320;28;19924;-71
2022/07/02 10:36:51;;;;;;;;;;;20.30;99.90;;;;;;8352203;28;19928;-70
2022/07/02 10:40:52;;;;;;;;;;;20.40;99.90;;;;;;8353064;28;19921;-71
2022/07/02 10:44:54;;;;;;;;;;;20.50;99.90;;;;;;8349918;28;19929;-71
2022/07/02 10:48:57;;;;;;;;;;;20.60;99.90;;;;;;8350528;28;19921;-70
2022/07/02 10:53:05;;;;;;;;;;;20.80;99.90;;;;;;8351431;28;19932;-71
2022/07/02 10:57:14;;;;;;;;;;;20.80;99.90;;;;;;8350689;28;19928;-71
2022/07/02 11:01:18;;;;;;;;;;;20.70;99.90;;;;;;8354534;28;19920;-71
2022/07/02 11:05:19;;;;;;;;;;;20.60;99.90;;;;;;8348738;28;20012;-71
2022/07/02 11:09:21;;;;;;;;;;;20.60;99.90;;;;;;8348800;28;19931;-71
2022/07/02 11:13:30;;;;;;;;;;;20.60;99.90;;;;;;8368977;28;19920;-71
2022/07/02 11:17:34;;;;;;;;;;;20.70;99.90;;;;;;8351534;28;20013;-71
2022/07/02 11:21:38;;;;;;;;;;;20.60;99.90;;;;;;8359028;28;19928;-72
2022/07/02 11:25:39;;;;;;;;;;;20.70;99.90;;;;;;8356884;28;19925;-71
2022/07/02 11:29:51;;;;;;;;;;;20.70;99.90;;;;;;8357879;28;20383;-71
2022/07/02 11:33:53;;;;;;;;;;;20.60;99.90;;;;;;8357561;28;20269;-71
2022/07/02 11:37:59;;;;;;;;;;;20.80;99.90;;;;;;8357178;28;19986;-71
2022/07/02 11:42:01;;;;;;;;;;;20.90;99.90;;;;;;8357465;28;19931;-71
2022/07/02 11:46:02;;;;;;;;;;;20.90;99.90;;;;;;8356107;28;19921;-72
2022/07/02 11:50:04;;;;;;;;;;;20.90;99.90;;;;;;8355150;28;19924;-70
2022/07/02 11:54:07;;;;;;;;;;;20.90;99.90;;;;;;8359617;28;19925;-71
2022/07/02 11:58:09;;;;;;;;;;;21.00;99.90;;;;;;8359003;28;19928;-71
2022/07/02 12:02:10;;;;;;;;;;;21.20;99.90;;;;;;8359921;28;19928;-71
2022/07/02 12:06:12;;;;;;;;;;;21.30;99.90;;;;;;8357199;28;20035;-71
2022/07/02 12:10:14;;;;;;;;;;;21.40;99.90;;;;;;8359226;28;20552;-71
2022/07/02 12:14:16;;;;;;;;;;;21.40;99.90;;;;;;8360354;28;19924;-70
2022/07/02 12:18:19;;;;;;;;;;;21.40;99.90;;;;;;8357110;28;19943;-71
2022/07/02 12:22:24;;;;;;;;;;;21.50;99.90;;;;;;8357068;28;19925;-71
2022/07/02 12:26:27;;;;;;;;;;;21.70;99.90;;;;;;8358760;28;19927;-71
2022/07/02 12:30:29;;;;;;;;;;;21.80;99.90;;;;;;8356795;28;19924;-71
2022/07/02 12:34:40;;;;;;;;;;;21.90;99.90;;;;;;8355935;28;19928;-70
2022/07/02 12:38:42;;;;;;;;;;;21.90;99.90;;;;;;8340959;28;20023;-71
2022/07/02 12:42:46;;;;;;;;;;;21.80;99.90;;;;;;8355239;28;20357;-71
2022/07/02 12:46:49;;;;;;;;;;;21.80;99.90;;;;;;8356082;28;20284;-71
2022/07/02 12:50:51;;;;;;;;;;;21.80;99.90;;;;;;8355667;28;19921;-68
2022/07/02 12:54:53;;;;;;;;;;;21.90;99.90;;;;;;8357174;28;19929;-68
2022/07/02 12:58:54;;;;;;;;;;;22.00;99.90;;;;;;8354763;28;19928;-70
2022/07/02 13:03:00;;;;;;;;;;;22.10;99.90;;;;;;8359583;28;20241;-74
2022/07/02 13:07:02;;;;;;;;;;;22.10;99.90;;;;;;8361752;28;20291;-73
2022/07/02 13:11:04;;;;;;;;;;;22.20;99.90;;;;;;8361442;28;19947;-73
2022/07/02 13:15:06;;;;;;;;;;;22.40;99.90;;;;;;8358936;28;19928;-74
2022/07/02 13:19:08;;;;;;;;;;;22.50;99.90;;;;;;8361804;28;19921;-73
2022/07/02 13:23:09;;;;;;;;;;;22.70;99.90;;;;;;8358474;28;19921;-74
2022/07/02 13:27:11;;;;;;;;;;;22.70;99.90;;;;;;8360485;28;19939;-73
2022/07/02 13:31:13;;;;;;;;;;;22.70;99.90;;;;;;8361859;28;19929;-74
2022/07/02 13:35:15;;;;;;;;;;;22.70;99.90;;;;;;8383719;28;19983;-74
2022/07/02 13:39:16;;;;;;;;;;;22.80;99.90;;;;;;8363332;28;19925;-73
2022/07/02 13:43:18;;;;;;;;;;;22.70;99.90;;;;;;8354045;28;19920;-74
2022/07/02 13:47:20;;;;;;;;;;;22.70;99.90;;;;;;8377155;28;19967;-74
2022/07/02 13:51:21;;;;;;;;;;;22.60;99.90;;;;;;8362563;28;19939;-74
2022/07/02 13:55:23;;;;;;;;;;;22.60;99.90;;;;;;8365914;28;19974;-74
2022/07/02 13:59:25;;;;;;;;;;;22.50;99.90;;;;;;8360446;28;20360;-74
2022/07/02 14:03:27;;;;;;;;;;;22.50;99.90;;;;;;8356999;28;20347;-75
2022/07/02 14:07:28;;;;;;;;;;;22.60;99.90;;;;;;8360536;28;19921;-74
2022/07/02 14:11:30;;;;;;;;;;;22.70;99.90;;;;;;8367803;28;19946;-74
2022/07/02 14:15:32;;;;;;;;;;;22.70;99.90;;;;;;8356137;28;19925;-74
2022/07/02 14:19:35;;;;;;;;;;;22.80;99.90;;;;;;8362809;28;19929;-74
2022/07/02 14:28:44;;;;;;;;;;;22.80;99.90;;;;;;8359357;28;19978;-73
2022/07/02 14:32:45;;;;;;;;;;;22.70;99.90;;;;;;8362319;28;20307;-74
2022/07/02 14:36:47;;;;;;;;;;;22.70;99.90;;;;;;8357604;28;19924;-73
2022/07/02 14:40:49;;;;;;;;;;;22.70;99.90;;;;;;8357449;28;19928;-73
2022/07/02 14:44:50;;;;;;;;;;;22.80;99.90;;;;;;8355989;28;19936;-73
2022/07/02 14:48:52;;;;;;;;;;;22.70;99.90;;;;;;8334587;28;19928;-73
2022/07/02 14:52:53;;;;;;;;;;;22.70;99.90;;;;;;8330962;28;19943;-73
2022/07/02 14:56:55;;;;;;;;;;;22.70;99.90;;;;;;8345046;28;19968;-73
2022/07/02 15:00:57;;;;;;;;;;;22.80;99.90;;;;;;8354048;28;19928;-73
2022/07/02 15:05:02;;;;;;;;;;;22.80;99.90;;;;;;8357484;28;19968;-73
2022/07/02 15:09:05;;;;;;;;;;;23.00;99.90;;;;;;8346726;28;20375;-74
2022/07/02 15:13:07;;;;;;;;;;;23.00;99.90;;;;;;8358285;28;19921;-73
2022/07/02 15:17:09;;;;;;;;;;;23.00;99.90;;;;;;8378526;28;20392;-74
2022/07/02 15:21:22;;;;;;;;;;;23.00;99.90;;;;;;8377656;28;19925;-73
2022/07/02 15:25:24;;;;;;;;;;;23.10;99.90;;;;;;8345911;28;20062;-74
2022/07/02 15:29:26;;;;;;;;;;;23.20;99.90;;;;;;8358177;28;19937;-74
2022/07/02 15:33:29;;;;;;;;;;;23.20;99.90;;;;;;8360658;28;20363;-74
2022/07/02 15:37:35;;;;;;;;;;;23.20;99.90;;;;;;8359867;28;20428;-74
2022/07/02 15:41:37;;;;;;;;;;;23.20;99.90;;;;;;8376106;28;20407;-73
2022/07/02 15:45:40;;;;;;;;;;;23.20;99.90;;;;;;8357510;28;19921;-73
2022/07/02 15:49:44;;;;;;;;;;;23.30;99.90;;;;;;8362359;28;19920;-73
2022/07/02 15:53:47;;;;;;;;;;;23.40;99.90;;;;;;8364953;28;20400;-73
2022/07/02 15:57:50;;;;;;;;;;;23.50;99.90;;;;;;8354998;28;19924;-73
2022/07/02 16:01:54;;;;;;;;;;;23.60;99.90;;;;;;8358545;28;20514;-73
2022/07/02 16:05:56;;;;;;;;;;;23.70;99.90;;;;;;8365159;28;20555;-73
2022/07/02 16:09:58;;;;;;;;;;;23.80;99.90;;;;;;8361183;28;19932;-73
2022/07/02 16:13:59;;;;;;;;;;;23.80;99.90;;;;;;8351628;28;19931;-73
2022/07/02 16:18:02;;;;;;;;;;;23.70;99.90;;;;;;8361814;28;20015;-73
2022/07/02 16:22:05;;;;;;;;;;;23.70;99.90;;;;;;8353166;28;19925;-73
2022/07/02 16:26:07;;;;;;;;;;;23.60;99.90;;;;;;8373173;28;19935;-73
2022/07/02 16:30:09;;;;;;;;;;;23.60;99.90;;;;;;8353983;28;20360;-72
2022/07/02 16:34:18;;;;;;;;;;;23.60;99.90;;;;;;8371020;28;19921;-73
2022/07/02 16:38:20;;;;;;;;;;;23.90;99.90;;;;;;8380038;28;19927;-73
2022/07/02 16:42:22;;;;;;;;;;;24.40;99.90;;;;;;8369133;28;19920;-73
2022/07/02 16:46:24;;;;;;;;;;;24.70;99.90;;;;;;8367556;28;20723;-74
2022/07/02 16:50:28;;;;;;;;;;;24.80;99.90;;;;;;8368520;28;19959;-74
2022/07/02 16:54:31;;;;;;;;;;;24.80;99.90;;;;;;8352845;28;20485;-73
2022/07/02 16:58:33;;;;;;;;;;;25.20;99.90;;;;;;8377363;28;19935;-74
2022/07/02 17:02:35;;;;;;;;;;;25.60;99.90;;;;;;8360236;28;20367;-73
2022/07/02 17:06:36;;;;;;;;;;;25.90;99.90;;;;;;8355166;28;19980;-73
2022/07/02 17:14:58;;;;;;;;;;;25.80;99.90;;;;;;8358804;28;19932;-73
2022/07/02 17:19:00;;;;;;;;;;;25.50;99.90;;;;;;8359265;28;20280;-73
2022/07/02 17:23:02;;;;;;;;;;;25.10;99.90;;;;;;8359064;28;19928;-73
2022/07/02 17:27:04;;;;;;;;;;;24.70;99.90;;;;;;8355642;28;19920;-74
2022/07/02 17:31:05;;;;;;;;;;;24.40;99.90;;;;;;8370815;28;19920;-73
2022/07/02 17:35:07;;;;;;;;;;;24.10;99.90;;;;;;8359482;28;19921;-74
2022/07/02 17:39:09;;;;;;;;;;;23.90;99.90;;;;;;8368599;28;20834;-75
2022/07/02 17:43:12;;;;;;;;;;;23.80;99.90;;;;;;8360219;28;19950;-74
2022/07/02 17:47:14;;;;;;;;;;;23.70;99.90;;;;;;8361578;28;19928;-74
2022/07/02 17:51:16;;;;;;;;;;;23.50;99.90;;;;;;8357902;28;19925;-74
2022/07/02 17:55:18;;;;;;;;;;;23.50;99.90;;;;;;8364324;28;20026;-74
2022/07/02 17:59:20;;;;;;;;;;;23.50;99.90;;;;;;8364075;28;20524;-73
2022/07/02 18:03:22;;;;;;;;;;;23.40;99.90;;;;;;8357619;28;19920;-74
2022/07/02 18:07:24;;;;;;;;;;;23.40;99.90;;;;;;8359895;28;19928;-74
2022/07/02 18:11:25;;;;;;;;;;;23.30;99.90;;;;;;8383867;28;19931;-74
2022/07/02 18:15:27;;;;;;;;;;;23.30;99.90;;;;;;8374239;28;19936;-74
2022/07/02 18:19:29;;;;;;;;;;;23.30;99.90;;;;;;8371756;28;19983;-74
2022/07/02 18:23:30;;;;;;;;;;;23.20;99.90;;;;;;8367224;28;19932;-74
2022/07/02 18:27:32;;;;;;;;;;;23.20;99.90;;;;;;8374143;28;19932;-74
2022/07/02 18:31:34;;;;;;;;;;;23.20;99.90;;;;;;8370628;28;19924;-74
2022/07/02 18:35:37;;;;;;;;;;;23.10;99.90;;;;;;8364665;28;20264;-74
2022/07/02 18:39:39;;;;;;;;;;;23.10;99.90;;;;;;8365544;28;19929;-75
2022/07/02 18:43:41;;;;;;;;;;;23.00;99.90;;;;;;8379797;28;19928;-74
2022/07/02 18:47:42;;;;;;;;;;;22.90;99.90;;;;;;8363835;28;19924;-74
2022/07/02 18:51:44;;;;;;;;;;;22.80;99.90;;;;;;8365924;28;20543;-74
2022/07/02 18:55:46;;;;;;;;;;;22.70;99.90;;;;;;8364945;28;19928;-74
2022/07/02 18:59:47;;;;;;;;;;;22.70;99.90;;;;;;8363293;28;19921;-74
2022/07/02 19:03:49;;;;;;;;;;;22.60;99.90;;;;;;8375826;28;19936;-75
2022/07/02 19:07:51;;;;;;;;;;;22.60;99.90;;;;;;8372153;28;19943;-74
2022/07/02 19:11:52;;;;;;;;;;;22.50;99.90;;;;;;8361118;28;19925;-74
2022/07/02 19:15:54;;;;;;;;;;;22.50;99.90;;;;;;8370225;28;20290;-74
2022/07/02 19:19:56;;;;;;;;;;;22.40;99.90;;;;;;8364184;28;20368;-74
2022/07/02 19:23:57;;;;;;;;;;;22.40;99.90;;;;;;8360385;28;19931;-75
2022/07/02 19:32:21;;;;;;;;;;;22.20;99.90;;;;;;8362315;28;20347;-75
2022/07/02 19:36:22;;;;;;;;;;;22.20;99.90;;;;;;8366643;28;19920;-74
2022/07/02 19:40:24;;;;;;;;;;;22.10;99.90;;;;;;8362388;28;19921;-74
2022/07/02 19:44:26;;;;;;;;;;;22.10;99.90;;;;;;8363072;28;19924;-75
2022/07/02 19:48:27;;;;;;;;;;;22.00;99.90;;;;;;8372897;28;19928;-74
2022/07/02 19:52:29;;;;;;;;;;;22.00;99.90;;;;;;8361270;28;21950;-74
2022/07/02 19:56:31;;;;;;;;;;;22.00;99.90;;;;;;8360273;28;19931;-74
2022/07/02 20:00:33;;;;;;;;;;;21.90;99.90;;;;;;8367441;28;19936;-74
2022/07/02 20:04:35;;;;;;;;;;;21.80;99.90;;;;;;8363113;28;20660;-75
2022/07/02 20:08:36;;;;;;;;;;;21.80;99.90;;;;;;8379620;28;20418;-74
2022/07/02 20:12:38;;;;;;;;;;;21.70;99.90;;;;;;8360112;28;19921;-74
2022/07/02 20:16:39;;;;;;;;;;;21.60;99.90;;;;;;8351719;28;19929;-74
2022/07/02 20:20:41;;;;;;;;;;;21.60;99.90;;;;;;8362946;28;20006;-75
2022/07/02 20:24:43;;;;;;;;;;;21.50;99.90;;;;;;8354708;28;19924;-74
2022/07/02 20:28:44;;;;;;;;;;;21.50;99.90;;;;;;8358247;28;19924;-74
2022/07/02 20:32:46;;;;;;;;;;;21.50;99.90;;;;;;8357651;28;20449;-75
2022/07/02 20:36:48;;;;;;;;;;;21.40;99.90;;;;;;8356208;28;19947;-75
2022/07/02 20:40:49;;;;;;;;;;;21.40;99.90;;;;;;8359775;28;20291;-74
2022/07/02 20:44:52;;;;;;;;;;;21.40;99.90;;;;;;8364245;28;19924;-74
2022/07/02 20:48:54;;;;;;;;;;;21.30;99.90;;;;;;8364292;28;19924;-74
2022/07/02 20:52:55;;;;;;;;;;;21.30;99.90;;;;;;8358384;28;19921;-74
2022/07/02 20:56:57;;;;;;;;;;;21.20;99.90;;;;;;8357256;28;20434;-75
2022/07/02 21:00:58;;;;;;;;;;;21.20;99.90;;;;;;8360360;28;20367;-74
2022/07/02 21:05:00;;;;;;;;;;;21.10;99.90;;;;;;8381811;28;20345;-74
2022/07/02 21:09:04;;;;;;;;;;;21.10;99.90;;;;;;8393016;28;19924;-74
2022/07/02 21:13:06;;;;;;;;;;;21.00;99.90;;;;;;8392688;28;20359;-74
2022/07/02 21:17:07;;;;;;;;;;;20.90;99.90;;;;;;8384621;28;19924;-74
2022/07/02 21:21:09;;;;;;;;;;;20.90;99.90;;;;;;8390473;28;19921;-74
2022/07/02 21:25:11;;;;;;;;;;;20.90;99.90;;;;;;8377721;28;19943;-75
2022/07/02 21:29:12;;;;;;;;;;;20.80;99.90;;;;;;8390321;28;19943;-74
2022/07/02 21:33:14;;;;;;;;;;;20.70;99.90;;;;;;8368668;28;19921;-74
2022/07/02 21:37:16;;;;;;;;;;;20.70;99.90;;;;;;8373978;28;19920;-74
2022/07/02 21:41:17;;;;;;;;;;;20.70;99.90;;;;;;8392014;28;19925;-75
2022/07/02 21:45:20;;;;;;;;;;;20.70;99.90;;;;;;8389424;28;20342;-75
2022/07/02 21:49:21;;;;;;;;;;;20.60;99.90;;;;;;8389871;28;19920;-74
2022/07/02 21:53:23;;;;;;;;;;;20.60;99.90;;;;;;8372849;28;19924;-74
2022/07/02 21:57:25;;;;;;;;;;;20.60;99.90;;;;;;8387850;28;19920;-74
2022/07/02 22:01:27;;;;;;;;;;;20.50;99.90;;;;;;8388454;28;19932;-75
2022/07/02 22:05:29;;;;;;;;;;;20.40;99.90;;;;;;8376088;28;19921;-74
2022/07/02 22:09:31;;;;;;;;;;;20.40;99.90;;;;;;8374158;28;19920;-74
2022/07/02 22:13:32;;;;;;;;;;;20.30;99.90;;;;;;8380417;28;19925;-75
2022/07/02 22:17:37;;;;;;;;;;;20.30;99.90;;;;;;8377407;28;19937;-74
2022/07/02 22:21:39;;;;;;;;;;;20.20;99.90;;;;;;8389641;28;20379;-74
2022/07/02 22:25:40;;;;;;;;;;;20.20;99.90;;;;;;8365169;28;19921;-74
2022/07/02 22:29:42;;;;;;;;;;;20.20;99.90;;;;;;8374218;28;20041;-74
2022/07/02 22:33:43;;;;;;;;;;;20.10;99.90;;;;;;8396284;28;20305;-75
2022/07/02 22:37:48;;;;;;;;;;;20.10;99.90;;;;;;8382000;28;19927;-74
2022/07/02 22:41:49;;;;;;;;;;;20.00;99.90;;;;;;8381863;28;19927;-75
2022/07/02 22:45:51;;;;;;;;;;;20.00;99.90;;;;;;8388519;28;20413;-74
2022/07/02 22:49:56;;;;;;;;;;;20.00;99.90;;;;;;8387279;28;19952;-75
2022/07/02 22:53:58;;;;;;;;;;;19.90;99.90;;;;;;8384748;28;20401;-74
2022/07/02 22:58:00;;;;;;;;;;;19.80;99.90;;;;;;8394262;28;20358;-74
2022/07/02 23:02:01;;;;;;;;;;;19.80;99.90;;;;;;8378990;28;20380;-75
2022/07/02 23:06:03;;;;;;;;;;;19.70;99.90;;;;;;8375440;28;19925;-74
2022/07/02 23:10:06;;;;;;;;;;;19.70;99.90;;;;;;8374523;28;20398;-74
2022/07/02 23:14:07;;;;;;;;;;;19.60;99.90;;;;;;8370555;28;19925;-74
2022/07/02 23:18:09;;;;;;;;;;;19.60;99.90;;;;;;8390174;28;19924;-75
2022/07/02 23:22:11;;;;;;;;;;;19.50;99.90;;;;;;8385853;28;19924;-74
2022/07/02 23:26:13;;;;;;;;;;;19.40;99.90;;;;;;8396873;28;19920;-74
2022/07/02 23:30:15;;;;;;;;;;;19.40;99.90;;;;;;8392956;28;19927;-74
2022/07/02 23:34:16;;;;;;;;;;;19.30;99.90;;;;;;8383924;28;19921;-74
2022/07/02 23:38:18;;;;;;;;;;;19.30;99.90;;;;;;8390081;28;20007;-74
2022/07/02 23:42:20;;;;;;;;;;;19.20;99.90;;;;;;8388176;28;19924;-74
2022/07/02 23:46:21;;;;;;;;;;;19.20;99.90;;;;;;8391982;28;20283;-74
2022/07/02 23:50:23;;;;;;;;;;;19.10;99.90;;;;;;8383399;28;19925;-74
2022/07/02 23:54:25;;;;;;;;;;;19.00;99.90;;;;;;8386549;28;20283;-74
2022/07/02 23:58:26;;;;;;;;;;;18.90;99.90;;;;;;8396170;28;19920;-74
